sensor_id;sensor_type;location;lat;lon;timestamp;pressure;altitude;pressure_sealevel;temperature;humidity
25759;BME280;13604;52.496;13.456;2022-09-09T00:01:49;100728.25;;;13.73;100.00
25759;BME280;13604;52.496;13.456;2022-09-09T00:04:30;100730.03;;;13.73;100.00
25759;BME280;13604;52.496;13.456;2022-09-09T00:07:22;100738.25;;;13.68;100.00
25759;BME280;13604;52.496;13.456;2022-09-09T00:12:34;100736.81;;;13.64;100.00
25759;BME280;13604;52.496;13.456;2022-09-09T00:15:07;100736.34;;;13.70;100.00
25759;BME280;13604;52.496;13.456;2022-09-09T00:17:42;100738.25;;;13.68;100.00
25759;BME280;13604;52.496;13.456;2022-09-09T00:20:19;100736.34;;;13.70;100.00
25759;BME280;13604;52.496;13.456;2022-09-09T00:22:53;100725.59;;;13.62;100.00
25759;BME280;13604;52.496;13.456;2022-09-09T00:25:28;100727.59;;;13.59;100.00
25759;BME280;13604;52.496;13.456;2022-09-09T00:27:55;100724.28;;;13.57;100.00
25759;BME280;13604;52.496;13.456;2022-09-09T00:30:31;100724.41;;;13.55;100.00
25759;BME280;13604;52.496;13.456;2022-09-09T00:33:01;100724.50;;;13.54;100.00
25759;BME280;13604;52.496;13.456;2022-09-09T00:35:37;100717.00;;;13.49;100.00
25759;BME280;13604;52.496;13.456;2022-09-09T00:38:18;100710.66;;;13.40;100.00
25759;BME280;13604;52.496;13.456;2022-09-09T00:40:56;100718.41;;;13.42;100.00
25759;BME280;13604;52.496;13.456;2022-09-09T00:43:32;100724.78;;;13.38;100.00
25759;BME280;13604;52.496;13.456;2022-09-09T00:46:34;100721.78;;;13.31;100.00
25759;BME280;13604;52.496;13.456;2022-09-09T00:52:08;100721.41;;;13.25;100.00
25759;BME280;13604;52.496;13.456;2022-09-09T00:54:57;100720.91;;;13.20;100.00
25759;BME280;13604;52.496;13.456;2022-09-09T00:57:29;100723.19;;;13.24;100.00
25759;BME280;13604;52.496;13.456;2022-09-09T01:05:33;100726.34;;;13.17;100.00
25759;BME280;13604;52.496;13.456;2022-09-09T01:08:02;100723.31;;;13.10;100.00
25759;BME280;13604;52.496;13.456;2022-09-09T01:10:48;100728.56;;;13.10;100.00
25759;BME280;13604;52.496;13.456;2022-09-09T01:13:22;100732.94;;;13.09;100.00
25759;BME280;13604;52.496;13.456;2022-09-09T01:15:48;100730.53;;;13.06;100.00
25759;BME280;13604;52.496;13.456;2022-09-09T01:18:17;100738.50;;;13.05;100.00
25759;BME280;13604;52.496;13.456;2022-09-09T01:20:47;100735.03;;;13.04;100.00
25759;BME280;13604;52.496;13.456;2022-09-09T01:23:38;100728.28;;;13.02;100.00
25759;BME280;13604;52.496;13.456;2022-09-09T01:26:21;100732.66;;;13.01;100.00
25759;BME280;13604;52.496;13.456;2022-09-09T01:28:50;100727.03;;;12.95;100.00
25759;BME280;13604;52.496;13.456;2022-09-09T01:31:27;100727.38;;;12.90;100.00
25759;BME280;13604;52.496;13.456;2022-09-09T01:33:53;100729.25;;;12.88;100.00
25759;BME280;13604;52.496;13.456;2022-09-09T01:38:59;100727.69;;;12.86;100.00
25759;BME280;13604;52.496;13.456;2022-09-09T01:41:25;100723.75;;;12.80;100.00
25759;BME280;13604;52.496;13.456;2022-09-09T01:43:50;100721.00;;;12.82;100.00
25759;BME280;13604;52.496;13.456;2022-09-09T01:46:17;100719.66;;;12.76;100.00
25759;BME280;13604;52.496;13.456;2022-09-09T01:48:46;100717.25;;;12.73;100.00
25759;BME280;13604;52.496;13.456;2022-09-09T01:51:11;100719.97;;;12.71;100.00
25759;BME280;13604;52.496;13.456;2022-09-09T01:53:38;100720.09;;;12.70;100.00
25759;BME280;13604;52.496;13.456;2022-09-09T01:56:21;100714.16;;;12.68;100.00
25759;BME280;13604;52.496;13.456;2022-09-09T01:59:45;100721.03;;;12.69;100.00
25759;BME280;13604;52.496;13.456;2022-09-09T02:02:36;100716.97;;;12.65;100.00
25759;BME280;13604;52.496;13.456;2022-09-09T02:05:37;100725.75;;;12.64;100.00
25759;BME280;13604;52.496;13.456;2022-09-09T02:08:28;100720.63;;;12.62;100.00
25759;BME280;13604;52.496;13.456;2022-09-09T02:11:13;100732.94;;;12.60;100.00
25759;BME280;13604;52.496;13.456;2022-09-09T02:13:39;100739.34;;;12.56;100.00
25759;BME280;13604;52.496;13.456;2022-09-09T02:18:57;100744.88;;;12.52;100.00
25759;BME280;13604;52.496;13.456;2022-09-09T02:21:27;100732.84;;;12.49;100.00
25759;BME280;13604;52.496;13.456;2022-09-09T02:23:55;100743.44;;;12.48;100.00
25759;BME280;13604;52.496;13.456;2022-09-09T02:26:23;100735.59;;;12.48;100.00
25759;BME280;13604;52.496;13.456;2022-09-09T02:28:50;100734.97;;;12.44;100.00
25759;BME280;13604;52.496;13.456;2022-09-09T02:31:20;100735.47;;;12.49;100.00
25759;BME280;13604;52.496;13.456;2022-09-09T02:33:59;100732.34;;;12.44;100.00
25759;BME280;13604;52.496;13.456;2022-09-09T02:36:29;100737.03;;;12.52;100.00
25759;BME280;13604;52.496;13.456;2022-09-09T02:38:56;100738.06;;;12.62;100.00
25759;BME280;13604;52.496;13.456;2022-09-09T02:41:35;100732.53;;;12.66;100.00
25759;BME280;13604;52.496;13.456;2022-09-09T02:44:01;100731.50;;;12.69;100.00
25759;BME280;13604;52.496;13.456;2022-09-09T02:49:59;100729.16;;;12.77;100.00
25759;BME280;13604;52.496;13.456;2022-09-09T02:52:45;100736.56;;;12.83;100.00
25759;BME280;13604;52.496;13.456;2022-09-09T02:55:20;100732.16;;;12.84;100.00
25759;BME280;13604;52.496;13.456;2022-09-09T02:57:49;100731.97;;;12.87;100.00
25759;BME280;13604;52.496;13.456;2022-09-09T03:00:15;100725.16;;;12.84;100.00
25759;BME280;13604;52.496;13.456;2022-09-09T03:02:41;100729.44;;;12.85;100.00
25759;BME280;13604;52.496;13.456;2022-09-09T03:05:07;100727.88;;;12.83;100.00
25759;BME280;13604;52.496;13.456;2022-09-09T03:07:33;100721.13;;;12.80;100.00
25759;BME280;13604;52.496;13.456;2022-09-09T03:09:58;100738.97;;;12.86;100.00
25759;BME280;13604;52.496;13.456;2022-09-09T03:12:24;100741.78;;;12.83;100.00
25759;BME280;13604;52.496;13.456;2022-09-09T03:14:49;100748.94;;;12.81;100.00
25759;BME280;13604;52.496;13.456;2022-09-09T03:17:14;100749.34;;;12.75;100.00
25759;BME280;13604;52.496;13.456;2022-09-09T03:19:40;100745.06;;;12.74;100.00
25759;BME280;13604;52.496;13.456;2022-09-09T03:22:06;100756.69;;;12.70;100.00
25759;BME280;13604;52.496;13.456;2022-09-09T03:24:31;100753.22;;;12.69;100.00
25759;BME280;13604;52.496;13.456;2022-09-09T03:26:57;100757.50;;;12.70;100.00
25759;BME280;13604;52.496;13.456;2022-09-09T03:29:22;100754.06;;;12.70;100.00
25759;BME280;13604;52.496;13.456;2022-09-09T03:31:47;100761.06;;;12.69;100.00
25759;BME280;13604;52.496;13.456;2022-09-09T03:34:13;100755.00;;;12.69;100.00
25759;BME280;13604;52.496;13.456;2022-09-09T03:36:38;100766.91;;;12.73;100.00
25759;BME280;13604;52.496;13.456;2022-09-09T03:39:04;100761.06;;;12.69;100.00
25759;BME280;13604;52.496;13.456;2022-09-09T03:41:30;100755.59;;;12.72;100.00
25759;BME280;13604;52.496;13.456;2022-09-09T03:43:55;100753.09;;;12.71;100.00
25759;BME280;13604;52.496;13.456;2022-09-09T03:46:23;100748.00;;;12.69;100.00
25759;BME280;13604;52.496;13.456;2022-09-09T03:48:48;100756.78;;;12.68;100.00
25759;BME280;13604;52.496;13.456;2022-09-09T03:51:15;100755.00;;;12.69;100.00
25759;BME280;13604;52.496;13.456;2022-09-09T03:53:41;100762.84;;;12.69;100.00
25759;BME280;13604;52.496;13.456;2022-09-09T03:56:06;100763.06;;;12.66;100.00
25759;BME280;13604;52.496;13.456;2022-09-09T03:58:33;100761.19;;;12.68;100.00
25759;BME280;13604;52.496;13.456;2022-09-09T04:01:01;100753.44;;;12.66;100.00
25759;BME280;13604;52.496;13.456;2022-09-09T04:03:28;100751.13;;;12.62;100.00
25759;BME280;13604;52.496;13.456;2022-09-09T04:05:55;100756.16;;;12.65;100.00
25759;BME280;13604;52.496;13.456;2022-09-09T04:08:21;100754.78;;;12.59;100.00
25759;BME280;13604;52.496;13.456;2022-09-09T04:10:49;100752.69;;;12.64;100.00
25759;BME280;13604;52.496;13.456;2022-09-09T04:13:16;100753.53;;;12.65;100.00
25759;BME280;13604;52.496;13.456;2022-09-09T04:15:42;100743.09;;;12.65;100.00
25759;BME280;13604;52.496;13.456;2022-09-09T04:18:08;100752.41;;;12.69;100.00
25759;BME280;13604;52.496;13.456;2022-09-09T04:20:33;100753.09;;;12.71;100.00
25759;BME280;13604;52.496;13.456;2022-09-09T04:22:59;100755.22;;;12.66;100.00
25759;BME280;13604;52.496;13.456;2022-09-09T04:25:24;100753.44;;;12.66;100.00
25759;BME280;13604;52.496;13.456;2022-09-09T04:27:57;100758.78;;;12.65;100.00
25759;BME280;13604;52.496;13.456;2022-09-09T04:30:23;100770.47;;;12.59;100.00
25759;BME280;13604;52.496;13.456;2022-09-09T04:32:49;100769.66;;;12.59;100.00
25759;BME280;13604;52.496;13.456;2022-09-09T04:35:14;100772.97;;;12.61;100.00
25759;BME280;13604;52.496;13.456;2022-09-09T04:37:40;100778.19;;;12.61;100.00
25759;BME280;13604;52.496;13.456;2022-09-09T04:40:06;100773.19;;;12.58;100.00
25759;BME280;13604;52.496;13.456;2022-09-09T04:42:35;100782.72;;;12.59;100.00
25759;BME280;13604;52.496;13.456;2022-09-09T04:45:01;100776.41;;;12.61;100.00
25759;BME280;13604;52.496;13.456;2022-09-09T04:47:26;100773.91;;;12.60;100.00
25759;BME280;13604;52.496;13.456;2022-09-09T04:49:52;100787.72;;;12.62;100.00
25759;BME280;13604;52.496;13.456;2022-09-09T04:52:19;100780.72;;;12.62;100.00
25759;BME280;13604;52.496;13.456;2022-09-09T04:54:44;100785.19;;;12.60;100.00
25759;BME280;13604;52.496;13.456;2022-09-09T04:57:11;100782.28;;;12.65;100.00
25759;BME280;13604;52.496;13.456;2022-09-09T04:59:36;100785.19;;;12.73;100.00
25759;BME280;13604;52.496;13.456;2022-09-09T05:02:02;100797.84;;;12.79;100.00
25759;BME280;13604;52.496;13.456;2022-09-09T05:04:28;100793.13;;;12.84;100.00
25759;BME280;13604;52.496;13.456;2022-09-09T05:06:53;100803.47;;;12.86;100.00
25759;BME280;13604;52.496;13.456;2022-09-09T05:09:19;100798.25;;;12.86;100.00
25759;BME280;13604;52.496;13.456;2022-09-09T05:11:44;100790.59;;;12.83;100.00
25759;BME280;13604;52.496;13.456;2022-09-09T05:14:09;100792.91;;;12.87;100.00
25759;BME280;13604;52.496;13.456;2022-09-09T05:16:37;100797.19;;;12.88;100.00
25759;BME280;13604;52.496;13.456;2022-09-09T05:19:02;100798.78;;;12.91;100.00
25759;BME280;13604;52.496;13.456;2022-09-09T05:21:28;100799.28;;;12.96;100.00
25759;BME280;13604;52.496;13.456;2022-09-09T05:23:54;100787.66;;;13.00;100.00
25759;BME280;13604;52.496;13.456;2022-09-09T05:26:21;100796.09;;;13.03;100.00
25759;BME280;13604;52.496;13.456;2022-09-09T05:28:47;100792.78;;;13.14;100.00
25759;BME280;13604;52.496;13.456;2022-09-09T05:31:14;100796.00;;;13.18;100.00
25759;BME280;13604;52.496;13.456;2022-09-09T05:33:41;100793.91;;;13.23;100.00
25759;BME280;13604;52.496;13.456;2022-09-09T05:36:10;100795.75;;;13.33;100.00
25759;BME280;13604;52.496;13.456;2022-09-09T05:38:37;100793.25;;;13.32;100.00
25759;BME280;13604;52.496;13.456;2022-09-09T05:41:03;100791.97;;;13.37;100.00
25759;BME280;13604;52.496;13.456;2022-09-09T05:43:29;100787.63;;;13.49;100.00
25759;BME280;13604;52.496;13.456;2022-09-09T05:46:06;100780.78;;;13.59;100.00
25759;BME280;13604;52.496;13.456;2022-09-09T05:48:34;100790.47;;;13.70;100.00
25759;BME280;13604;52.496;13.456;2022-09-09T05:51:00;100795.16;;;13.77;100.00
25759;BME280;13604;52.496;13.456;2022-09-09T05:53:26;100805.72;;;13.76;100.00
25759;BME280;13604;52.496;13.456;2022-09-09T05:56:00;100801.28;;;13.89;100.00
25759;BME280;13604;52.496;13.456;2022-09-09T05:58:26;100804.97;;;13.98;100.00
25759;BME280;13604;52.496;13.456;2022-09-09T06:00:52;100801.06;;;14.03;100.00
25759;BME280;13604;52.496;13.456;2022-09-09T06:03:19;100803.47;;;14.06;100.00
25759;BME280;13604;52.496;13.456;2022-09-09T06:05:57;100806.28;;;14.03;100.00
25759;BME280;13604;52.496;13.456;2022-09-09T06:08:22;100815.00;;;14.04;100.00
25759;BME280;13604;52.496;13.456;2022-09-09T06:10:47;100811.16;;;13.97;100.00
25759;BME280;13604;52.496;13.456;2022-09-09T06:13:12;100822.94;;;13.91;100.00
25759;BME280;13604;52.496;13.456;2022-09-09T06:15:38;100818.28;;;13.95;100.00
25759;BME280;13604;52.496;13.456;2022-09-09T06:18:03;100821.53;;;13.98;100.00
25759;BME280;13604;52.496;13.456;2022-09-09T06:20:28;100821.19;;;14.14;100.00
25759;BME280;13604;52.496;13.456;2022-09-09T06:22:55;100819.06;;;14.08;100.00
25759;BME280;13604;52.496;13.456;2022-09-09T06:25:20;100823.59;;;14.17;100.00
25759;BME280;13604;52.496;13.456;2022-09-09T06:27:48;100824.59;;;14.38;100.00
25759;BME280;13604;52.496;13.456;2022-09-09T06:30:14;100819.38;;;14.38;100.00
25759;BME280;13604;52.496;13.456;2022-09-09T06:32:39;100822.66;;;14.64;100.00
25759;BME280;13604;52.496;13.456;2022-09-09T06:35:05;100821.97;;;14.96;100.00
25759;BME280;13604;52.496;13.456;2022-09-09T06:37:31;100821.34;;;15.14;100.00
25759;BME280;13604;52.496;13.456;2022-09-09T06:39:56;100815.59;;;15.32;100.00
25759;BME280;13604;52.496;13.456;2022-09-09T06:42:21;100831.94;;;15.46;100.00
25759;BME280;13604;52.496;13.456;2022-09-09T06:44:47;100830.09;;;15.47;100.00
25759;BME280;13604;52.496;13.456;2022-09-09T06:47:12;100837.53;;;15.42;100.00
25759;BME280;13604;52.496;13.456;2022-09-09T06:49:37;100835.63;;;15.55;100.00
25759;BME280;13604;52.496;13.456;2022-09-09T06:52:02;100827.22;;;15.72;100.00
25759;BME280;13604;52.496;13.456;2022-09-09T06:54:28;100832.31;;;15.85;100.00
25759;BME280;13604;52.496;13.456;2022-09-09T06:56:53;100832.63;;;15.91;100.00
25759;BME280;13604;52.496;13.456;2022-09-09T06:59:19;100830.13;;;16.22;100.00
25759;BME280;13604;52.496;13.456;2022-09-09T07:01:44;100828.69;;;16.38;100.00
25759;BME280;13604;52.496;13.456;2022-09-09T07:04:09;100825.59;;;16.75;100.00
25759;BME280;13604;52.496;13.456;2022-09-09T07:06:41;100824.69;;;17.26;100.00
25759;BME280;13604;52.496;13.456;2022-09-09T07:09:11;100827.44;;;17.93;100.00
25759;BME280;13604;52.496;13.456;2022-09-09T07:11:39;100828.66;;;18.28;100.00
25759;BME280;13604;52.496;13.456;2022-09-09T07:14:06;100833.19;;;18.45;100.00
25759;BME280;13604;52.496;13.456;2022-09-09T07:16:32;100833.25;;;18.82;100.00
25759;BME280;13604;52.496;13.456;2022-09-09T07:18:58;100836.31;;;19.42;100.00
25759;BME280;13604;52.496;13.456;2022-09-09T07:21:25;100828.69;;;19.66;100.00
25759;BME280;13604;52.496;13.456;2022-09-09T07:23:51;100830.63;;;19.82;100.00
25759;BME280;13604;52.496;13.456;2022-09-09T07:26:19;100846.66;;;19.98;98.52
25759;BME280;13604;52.496;13.456;2022-09-09T07:28:46;100839.91;;;20.04;98.73
25759;BME280;13604;52.496;13.456;2022-09-09T07:31:17;100842.19;;;19.81;94.89
25759;BME280;13604;52.496;13.456;2022-09-09T07:33:43;100846.28;;;19.93;99.86
25759;BME280;13604;52.496;13.456;2022-09-09T07:36:15;100839.16;;;19.58;95.52
25759;BME280;13604;52.496;13.456;2022-09-09T07:38:46;100837.81;;;19.72;96.90
25759;BME280;13604;52.496;13.456;2022-09-09T07:41:14;100837.88;;;20.15;96.59
25759;BME280;13604;52.496;13.456;2022-09-09T07:43:42;100840.63;;;20.75;96.08
25759;BME280;13604;52.496;13.456;2022-09-09T07:46:08;100833.03;;;21.14;90.78
25759;BME280;13604;52.496;13.456;2022-09-09T07:48:34;100831.84;;;21.51;86.77
25759;BME280;13604;52.496;13.456;2022-09-09T07:51:11;100834.34;;;21.52;84.59
25759;BME280;13604;52.496;13.456;2022-09-09T07:53:38;100847.88;;;22.07;85.74
25759;BME280;13604;52.496;13.456;2022-09-09T07:56:09;100846.31;;;22.62;79.90
25759;BME280;13604;52.496;13.456;2022-09-09T07:58:39;100840.50;;;22.58;77.75
25759;BME280;13604;52.496;13.456;2022-09-09T08:01:17;100841.06;;;22.37;78.11
25759;BME280;13604;52.496;13.456;2022-09-09T08:03:44;100848.81;;;22.47;76.94
25759;BME280;13604;52.496;13.456;2022-09-09T08:06:10;100845.38;;;22.38;77.39
25759;BME280;13604;52.496;13.456;2022-09-09T08:08:37;100851.81;;;22.60;77.31
25759;BME280;13604;52.496;13.456;2022-09-09T08:11:14;100844.28;;;22.88;78.03
25759;BME280;13604;52.496;13.456;2022-09-09T08:13:42;100843.44;;;23.35;72.61
25759;BME280;13604;52.496;13.456;2022-09-09T08:16:17;100856.31;;;23.54;70.92
25759;BME280;13604;52.496;13.456;2022-09-09T08:18:43;100854.44;;;23.63;69.86
25759;BME280;13604;52.496;13.456;2022-09-09T08:21:12;100859.69;;;23.01;70.57
25759;BME280;13604;52.496;13.456;2022-09-09T08:23:40;100861.91;;;22.57;74.14
25759;BME280;13604;52.496;13.456;2022-09-09T08:26:13;100860.78;;;22.51;73.79
25759;BME280;13604;52.496;13.456;2022-09-09T08:28:40;100867.09;;;22.34;76.51
25759;BME280;13604;52.496;13.456;2022-09-09T08:31:14;100861.91;;;21.75;77.11
25759;BME280;13604;52.496;13.456;2022-09-09T08:33:40;100855.03;;;21.15;80.77
25759;BME280;13604;52.496;13.456;2022-09-09T08:36:08;100853.66;;;20.43;85.03
25759;BME280;13604;52.496;13.456;2022-09-09T08:38:34;100858.63;;;20.46;86.46
25759;BME280;13604;52.496;13.456;2022-09-09T08:41:12;100855.94;;;20.20;88.63
25759;BME280;13604;52.496;13.456;2022-09-09T08:43:43;100855.69;;;19.78;92.20
25759;BME280;13604;52.496;13.456;2022-09-09T08:46:16;100861.38;;;19.83;92.16
25759;BME280;13604;52.496;13.456;2022-09-09T08:49:01;100859.41;;;19.85;93.19
25759;BME280;13604;52.496;13.456;2022-09-09T08:51:30;100858.81;;;19.91;92.81
25759;BME280;13604;52.496;13.456;2022-09-09T08:53:59;100854.50;;;19.72;93.53
25759;BME280;13604;52.496;13.456;2022-09-09T08:56:28;100862.50;;;19.80;93.51
25759;BME280;13604;52.496;13.456;2022-09-09T08:58:56;100865.31;;;19.96;92.87
25759;BME280;13604;52.496;13.456;2022-09-09T09:07:18;100857.59;;;21.24;86.05
25759;BME280;13604;52.496;13.456;2022-09-09T09:09:55;100864.38;;;21.77;83.35
25759;BME280;13604;52.496;13.456;2022-09-09T09:12:29;100871.38;;;22.43;77.90
25759;BME280;13604;52.496;13.456;2022-09-09T09:14:58;100864.03;;;23.33;73.54
25759;BME280;13604;52.496;13.456;2022-09-09T09:17:27;100859.41;;;24.34;70.18
25759;BME280;13604;52.496;13.456;2022-09-09T09:19:53;100861.25;;;25.00;62.47
25759;BME280;13604;52.496;13.456;2022-09-09T09:22:28;100855.19;;;25.43;63.00
25759;BME280;13604;52.496;13.456;2022-09-09T09:25:08;100858.31;;;24.95;62.72
25759;BME280;13604;52.496;13.456;2022-09-09T09:27:40;100855.72;;;25.89;60.15
25759;BME280;13604;52.496;13.456;2022-09-09T09:30:17;100846.53;;;27.50;53.35
25759;BME280;13604;52.496;13.456;2022-09-09T09:35:15;100852.63;;;28.32;49.53
25759;BME280;13604;52.496;13.456;2022-09-09T09:37:41;100850.34;;;28.68;48.96
25759;BME280;13604;52.496;13.456;2022-09-09T09:40:27;100845.50;;;29.10;46.98
25759;BME280;13604;52.496;13.456;2022-09-09T09:43:00;100838.47;;;30.16;44.79
25759;BME280;13604;52.496;13.456;2022-09-09T09:45:34;100844.06;;;30.39;43.57
25759;BME280;13604;52.496;13.456;2022-09-09T09:48:09;100842.66;;;31.65;42.02
25759;BME280;13604;52.496;13.456;2022-09-09T09:50:35;100847.34;;;31.03;39.59
25759;BME280;13604;52.496;13.456;2022-09-09T09:53:06;100844.00;;;30.89;39.80
25759;BME280;13604;52.496;13.456;2022-09-09T09:55:53;100852.19;;;30.76;41.09
25759;BME280;13604;52.496;13.456;2022-09-09T09:58:18;100852.19;;;30.76;41.46
25759;BME280;13604;52.496;13.456;2022-09-09T10:00:48;100844.50;;;31.16;40.84
25759;BME280;13604;52.496;13.456;2022-09-09T10:03:24;100842.00;;;31.93;39.96
25759;BME280;13604;52.496;13.456;2022-09-09T10:05:51;100848.88;;;31.47;39.12
25759;BME280;13604;52.496;13.456;2022-09-09T10:08:17;100839.38;;;32.39;37.63
25759;BME280;13604;52.496;13.456;2022-09-09T10:11:03;100834.31;;;33.30;36.71
25759;BME280;13604;52.496;13.456;2022-09-09T10:16:29;100851.88;;;29.91;41.87
25759;BME280;13604;52.496;13.456;2022-09-09T10:19:01;100845.38;;;28.65;44.74
25759;BME280;13604;52.496;13.456;2022-09-09T10:27:05;100845.66;;;30.47;40.51
25759;BME280;13604;52.496;13.456;2022-09-09T10:30:01;100846.22;;;30.06;40.65
25759;BME280;13604;52.496;13.456;2022-09-09T10:35:24;100853.38;;;27.66;46.41
25759;BME280;13604;52.496;13.456;2022-09-09T10:40:32;100856.09;;;28.72;44.54
25759;BME280;13604;52.496;13.456;2022-09-09T10:43:09;100849.09;;;28.64;44.61
25759;BME280;13604;52.496;13.456;2022-09-09T10:46:10;100852.97;;;27.69;48.82
25759;BME280;13604;52.496;13.456;2022-09-09T10:48:57;100857.31;;;26.81;49.68
25759;BME280;13604;52.496;13.456;2022-09-09T10:51:49;100849.75;;;27.26;50.59
25759;BME280;13604;52.496;13.456;2022-09-09T10:54:56;100850.34;;;28.81;46.26
25759;BME280;13604;52.496;13.456;2022-09-09T10:57:29;100843.69;;;30.11;43.21
25759;BME280;13604;52.496;13.456;2022-09-09T10:59:59;100841.25;;;31.14;39.56
25759;BME280;13604;52.496;13.456;2022-09-09T11:02:30;100851.00;;;31.27;37.99
25759;BME280;13604;52.496;13.456;2022-09-09T11:07:58;100844.66;;;33.21;35.93
25759;BME280;13604;52.496;13.456;2022-09-09T11:10:34;100848.53;;;34.70;34.21
25759;BME280;13604;52.496;13.456;2022-09-09T11:13:53;100834.66;;;35.05;32.66
25759;BME280;13604;52.496;13.456;2022-09-09T11:15:59;100835.38;;;31.17;35.99
25759;BME280;13604;52.496;13.456;2022-09-09T11:18:29;100848.47;;;30.34;38.95
25759;BME280;13604;52.496;13.456;2022-09-09T11:20:59;100842.44;;;29.00;41.54
25759;BME280;13604;52.496;13.456;2022-09-09T11:23:33;100844.31;;;29.82;42.62
25759;BME280;13604;52.496;13.456;2022-09-09T11:26:04;100839.22;;;31.09;38.10
25759;BME280;13604;52.496;13.456;2022-09-09T11:28:56;100837.25;;;32.76;35.06
25759;BME280;13604;52.496;13.456;2022-09-09T11:34:40;100836.44;;;33.16;33.29
25759;BME280;13604;52.496;13.456;2022-09-09T11:40:21;100835.50;;;32.59;34.83
25759;BME280;13604;52.496;13.456;2022-09-09T11:42:48;100833.91;;;33.09;33.35
25759;BME280;13604;52.496;13.456;2022-09-09T11:45:24;100826.88;;;32.97;34.17
25759;BME280;13604;52.496;13.456;2022-09-09T11:47:58;100825.69;;;33.61;33.44
25759;BME280;13604;52.496;13.456;2022-09-09T11:50:29;100831.19;;;31.51;35.09
25759;BME280;13604;52.496;13.456;2022-09-09T11:55:39;100830.78;;;30.69;36.96
25759;BME280;13604;52.496;13.456;2022-09-09T11:58:14;100829.91;;;29.31;41.12
25759;BME280;13604;52.496;13.456;2022-09-09T12:00:47;100827.91;;;28.16;44.85
25759;BME280;13604;52.496;13.456;2022-09-09T12:06:27;100829.44;;;26.28;52.56
25759;BME280;13604;52.496;13.456;2022-09-09T12:09:08;100825.16;;;26.13;53.03
25759;BME280;13604;52.496;13.456;2022-09-09T12:11:36;100818.38;;;25.89;52.32
25759;BME280;13604;52.496;13.456;2022-09-09T12:14:02;100798.50;;;27.16;50.44
25759;BME280;13604;52.496;13.456;2022-09-09T12:16:34;100797.09;;;28.85;44.27
25759;BME280;13604;52.496;13.456;2022-09-09T12:19:05;100801.94;;;28.43;42.87
25759;BME280;13604;52.496;13.456;2022-09-09T12:21:38;100793.53;;;29.74;41.73
25759;BME280;13604;52.496;13.456;2022-09-09T12:24:09;100790.16;;;31.07;38.17
25759;BME280;13604;52.496;13.456;2022-09-09T12:26:41;100789.16;;;30.72;37.31
25759;BME280;13604;52.496;13.456;2022-09-09T12:29:25;100782.44;;;31.29;36.55
25759;BME280;13604;52.496;13.456;2022-09-09T12:32:15;100778.03;;;31.35;35.48
25759;BME280;13604;52.496;13.456;2022-09-09T12:34:47;100783.53;;;31.10;36.26
25759;BME280;13604;52.496;13.456;2022-09-09T12:37:38;100783.56;;;30.92;38.31
25759;BME280;13604;52.496;13.456;2022-09-09T12:40:20;100793.56;;;29.36;40.26
25759;BME280;13604;52.496;13.456;2022-09-09T12:42:46;100779.09;;;29.05;42.11
25759;BME280;13604;52.496;13.456;2022-09-09T12:45:19;100788.53;;;28.43;43.30
25759;BME280;13604;52.496;13.456;2022-09-09T12:47:53;100779.09;;;27.81;44.95
25759;BME280;13604;52.496;13.456;2022-09-09T12:50:21;100774.34;;;27.77;45.83
25759;BME280;13604;52.496;13.456;2022-09-09T12:52:48;100776.16;;;27.50;47.05
25759;BME280;13604;52.496;13.456;2022-09-09T12:55:20;100773.59;;;27.29;46.76
25759;BME280;13604;52.496;13.456;2022-09-09T12:57:48;100772.00;;;26.80;47.72
25759;BME280;13604;52.496;13.456;2022-09-09T13:00:17;100784.06;;;26.69;50.87
25759;BME280;13604;52.496;13.456;2022-09-09T13:02:57;100784.72;;;25.66;50.51
25759;BME280;13604;52.496;13.456;2022-09-09T13:05:34;100786.94;;;25.27;53.99
25759;BME280;13604;52.496;13.456;2022-09-09T13:08:08;100792.81;;;25.22;52.14
25759;BME280;13604;52.496;13.456;2022-09-09T13:11:02;100792.47;;;25.25;51.37
25759;BME280;13604;52.496;13.456;2022-09-09T13:13:36;100795.44;;;25.01;50.50
25759;BME280;13604;52.496;13.456;2022-09-09T13:16:02;100792.69;;;24.36;53.60
25759;BME280;13604;52.496;13.456;2022-09-09T13:18:31;100803.16;;;24.66;53.08
25759;BME280;13604;52.496;13.456;2022-09-09T13:20:58;100789.56;;;24.76;52.05
25759;BME280;13604;52.496;13.456;2022-09-09T13:23:28;100782.03;;;24.65;52.65
25759;BME280;13604;52.496;13.456;2022-09-09T13:25:59;100789.34;;;24.19;53.92
25759;BME280;13604;52.496;13.456;2022-09-09T13:28:28;100774.44;;;24.62;52.74
25759;BME280;13604;52.496;13.456;2022-09-09T13:31:03;100770.03;;;25.20;50.95
25759;BME280;13604;52.496;13.456;2022-09-09T13:33:36;100770.06;;;26.05;48.14
25759;BME280;13604;52.496;13.456;2022-09-09T13:36:09;100768.69;;;26.43;48.16
25759;BME280;13604;52.496;13.456;2022-09-09T13:38:37;100766.41;;;26.75;47.99
25759;BME280;13604;52.496;13.456;2022-09-09T13:41:05;100761.75;;;26.49;46.63
25759;BME280;13604;52.496;13.456;2022-09-09T13:43:44;100769.59;;;25.95;47.68
25759;BME280;13604;52.496;13.456;2022-09-09T13:46:39;100758.25;;;25.29;50.01
25759;BME280;13604;52.496;13.456;2022-09-09T13:51:44;100754.13;;;29.99;40.22
25759;BME280;13604;52.496;13.456;2022-09-09T13:54:13;100751.16;;;32.23;35.95
25759;BME280;13604;52.496;13.456;2022-09-09T13:56:39;100753.66;;;33.33;31.63